Time;durP1;ratioP1;P1;durP2;ratioP2;P2;SDS_P1;SDS_P2;PMS_P1;PMS_P2;Temp;Humidity;BMP_temperature;BMP_pressure;BME280_temperature;BME280_humidity;BME280_pressure;Samples;Min_cycle;Max_cycle;Signal;HPM_P1;HPM_P2
2021/01/11 00:00:24;;;;;;;42.63;24.42;;;4.90;99.90;;;;;;6125726;23;20010;-86
2021/01/11 00:02:51;;;;;;;41.70;24.85;;;4.80;99.90;;;;;;6123770;23;20017;-84
2021/01/11 00:05:18;;;;;;;43.08;25.20;;;5.00;99.90;;;;;;6123878;23;20009;-86
2021/01/11 00:07:50;;;;;;;38.08;24.63;;;5.00;99.90;;;;;;6125585;23;20006;-88
2021/01/11 00:10:24;;;;;;;44.50;25.75;;;5.00;99.90;;;;;;6124602;23;20360;-86
2021/01/11 00:12:50;;;;;;;39.17;23.73;;;5.10;99.90;;;;;;6124270;23;20325;-87
2021/01/11 00:15:16;;;;;;;37.00;23.95;;;5.10;99.90;;;;;;6123924;23;20437;-88
2021/01/11 00:17:43;;;;;;;39.53;24.90;;;5.20;99.90;;;;;;6124107;23;20498;-87
2021/01/11 00:20:11;;;;;;;41.13;26.00;;;5.20;99.90;;;;;;6126419;23;20033;-89
2021/01/11 00:22:37;;;;;;;47.55;26.20;;;5.20;99.90;;;;;;6124856;23;20138;-85
2021/01/11 00:25:04;;;;;;;44.72;25.85;;;5.10;99.90;;;;;;6127809;23;20006;-85
2021/01/11 00:27:30;;;;;;;44.63;25.15;;;5.00;99.90;;;;;;6124525;23;20010;-87
2021/01/11 00:29:56;;;;;;;38.38;24.42;;;5.00;99.90;;;;;;6127085;23;20077;-87
2021/01/11 00:32:21;;;;;;;42.38;24.63;;;5.10;99.90;;;;;;6124621;23;20041;-86
2021/01/11 00:34:47;;;;;;;37.95;24.42;;;5.10;99.90;;;;;;6125751;23;20025;-86
2021/01/11 00:37:13;;;;;;;35.58;23.60;;;5.10;99.90;;;;;;6127258;23;20320;-89
2021/01/11 00:39:39;;;;;;;35.63;22.95;;;4.90;99.90;;;;;;6099033;23;20014;-87
2021/01/11 00:42:05;;;;;;;40.15;23.67;;;5.00;99.90;;;;;;6125575;23;19998;-86
2021/01/11 00:44:45;;;;;;;77.85;43.22;;;5.20;99.90;;;;;;6127183;23;19998;-87
2021/01/11 00:47:10;;;;;;;37.30;23.45;;;5.30;99.90;;;;;;6127038;23;20014;-84
2021/01/11 00:49:37;;;;;;;31.58;19.55;;;5.20;99.90;;;;;;6126908;23;20071;-83
2021/01/11 00:52:05;;;;;;;30.65;19.42;;;5.20;99.90;;;;;;6124388;23;20009;-85
2021/01/11 00:54:31;;;;;;;30.35;19.20;;;5.20;99.90;;;;;;6123506;23;20380;-87
2021/01/11 00:56:57;;;;;;;28.05;18.52;;;5.20;99.90;;;;;;6126379;23;20428;-88
2021/01/11 00:59:25;;;;;;;31.23;20.70;;;5.20;99.90;;;;;;6123689;23;20002;-87
2021/01/11 01:01:55;;;;;;;35.75;22.27;;;4.70;99.90;;;;;;6125452;23;20006;-84
2021/01/11 01:04:21;;;;;;;36.95;24.58;;;4.40;99.90;;;;;;6124069;23;20443;-84
2021/01/11 01:06:47;;;;;;;38.60;25.23;;;4.50;99.90;;;;;;6123643;23;20006;-89
2021/01/11 01:09:14;;;;;;;40.45;25.48;;;4.50;99.90;;;;;;6122919;23;20009;-85
2021/01/11 01:11:41;;;;;;;39.55;23.58;;;4.50;99.90;;;;;;6124710;23;20064;-86
2021/01/11 01:14:07;;;;;;;36.38;22.13;;;4.40;99.90;;;;;;6124289;23;20006;-82
2021/01/11 01:16:33;;;;;;;36.17;22.30;;;4.40;99.90;;;;;;6124337;23;20006;-83
2021/01/11 01:18:59;;;;;;;35.75;22.13;;;4.50;99.90;;;;;;6124194;23;20057;-84
2021/01/11 01:21:26;;;;;;;33.05;22.38;;;4.40;99.90;;;;;;6123416;23;20006;-85
2021/01/11 01:23:52;;;;;;;33.88;21.90;;;4.40;99.90;;;;;;6122599;23;20014;-84
2021/01/11 01:26:18;;;;;;;33.05;21.70;;;4.60;99.90;;;;;;6124203;23;20098;-84
2021/01/11 01:28:44;;;;;;;25.48;17.83;;;4.70;99.90;;;;;;6122347;23;20498;-82
2021/01/11 01:31:10;;;;;;;21.17;14.98;;;4.60;99.90;;;;;;6122262;23;20088;-81
2021/01/11 01:33:36;;;;;;;15.68;11.73;;;4.70;99.90;;;;;;6122094;23;20313;-83
2021/01/11 01:36:02;;;;;;;19.10;12.57;;;4.80;99.90;;;;;;6123627;23;20009;-82
2021/01/11 01:38:31;;;;;;;18.77;12.60;;;5.00;99.90;;;;;;6123770;23;20002;-86
2021/01/11 01:41:00;;;;;;;15.32;11.00;;;5.20;99.90;;;;;;6123984;23;20073;-82
2021/01/11 01:43:25;;;;;;;18.75;11.55;;;5.30;99.90;;;;;;6123609;23;20391;-83
2021/01/11 01:45:51;;;;;;;14.10;10.45;;;5.30;99.90;;;;;;6121972;23;20009;-83
2021/01/11 01:48:17;;;;;;;20.67;13.90;;;5.30;99.90;;;;;;6121418;23;20013;-85
2021/01/11 01:50:43;;;;;;;23.23;13.88;;;5.40;99.90;;;;;;6123834;23;20102;-82
2021/01/11 01:53:09;;;;;;;22.70;16.55;;;5.20;99.90;;;;;;6120945;23;20432;-84
2021/01/11 01:55:37;;;;;;;25.02;17.05;;;5.00;99.90;;;;;;6121787;23;20013;-83
2021/01/11 01:58:05;;;;;;;24.83;16.58;;;5.00;99.90;;;;;;6121887;23;20015;-84
2021/01/11 02:00:31;;;;;;;28.25;19.42;;;5.10;99.90;;;;;;6122092;23;20040;-83
2021/01/11 02:02:57;;;;;;;34.95;21.00;;;5.00;99.90;;;;;;6123618;23;20006;-88
2021/01/11 02:05:23;;;;;;;33.85;21.17;;;4.70;99.90;;;;;;6123219;23;20673;-87
2021/01/11 02:08:02;;;;;;;36.25;22.08;;;4.70;99.90;;;;;;6121707;23;20006;-85
2021/01/11 02:11:04;;;;;;;32.90;20.75;;;4.70;99.90;;;;;;6123280;23;20072;-84
2021/01/11 02:13:30;;;;;;;29.75;19.50;;;4.60;99.90;;;;;;6123800;23;20013;-84
2021/01/11 02:16:33;;;;;;;32.90;19.90;;;4.70;99.90;;;;;;6121928;23;20017;-84
2021/01/11 02:19:23;;;;;;;29.10;18.73;;;4.80;99.90;;;;;;6121594;23;20119;-83
2021/01/11 02:22:08;;;;;;;28.23;18.20;;;4.70;99.90;;;;;;6121759;23;20010;-84
2021/01/11 02:24:53;;;;;;;26.23;15.70;;;4.70;99.90;;;;;;6123439;23;20336;-84
2021/01/11 02:27:29;;;;;;;19.95;12.77;;;4.80;99.90;;;;;;6123665;23;20005;-81
2021/01/11 02:30:16;;;;;;;20.75;13.00;;;4.90;99.90;;;;;;6123121;23;20029;-83
2021/01/11 02:33:11;;;;;;;20.33;12.20;;;5.10;99.90;;;;;;6121723;23;20159;-81
2021/01/11 02:35:49;;;;;;;15.65;10.55;;;5.10;99.90;;;;;;6121031;23;20020;-82
2021/01/11 02:38:18;;;;;;;14.65;9.27;;;5.20;99.90;;;;;;6123708;23;20005;-83
2021/01/11 02:40:44;;;;;;;16.33;9.10;;;5.30;99.90;;;;;;6123116;23;20101;-83
2021/01/11 02:43:11;;;;;;;20.10;11.95;;;5.30;99.90;;;;;;6123684;23;20008;-86
2021/01/11 02:45:37;;;;;;;23.92;15.00;;;5.30;99.90;;;;;;6123218;23;20030;-83
2021/01/11 02:48:29;;;;;;;27.60;16.25;;;5.20;99.90;;;;;;6123968;23;20002;-81
2021/01/11 02:51:11;;;;;;;25.58;16.42;;;5.10;99.90;;;;;;6122625;23;20407;-84
2021/01/11 02:53:58;;;;;;;30.02;18.27;;;5.10;99.90;;;;;;6123057;23;20052;-83
2021/01/11 02:56:50;;;;;;;25.85;16.30;;;5.10;99.90;;;;;;6122735;23;20007;-85
2021/01/11 02:59:20;;;;;;;24.80;16.35;;;5.10;99.90;;;;;;6117402;23;20102;-81
2021/01/11 03:02:16;;;;;;;23.10;15.90;;;5.10;99.90;;;;;;6124067;23;20060;-82
2021/01/11 03:04:42;;;;;;;27.08;16.88;;;5.10;99.90;;;;;;6111187;23;20642;-84
2021/01/11 03:07:09;;;;;;;25.85;17.15;;;5.10;99.90;;;;;;6124460;23;20006;-88
2021/01/11 03:09:43;;;;;;;28.95;17.27;;;5.10;99.90;;;;;;6124771;23;19994;-89
2021/01/11 03:12:10;;;;;;;25.92;17.40;;;5.10;99.90;;;;;;6122915;23;20013;-85
2021/01/11 03:14:37;;;;;;;26.58;17.63;;;5.10;99.90;;;;;;6122484;23;20014;-84
2021/01/11 03:17:03;;;;;;;25.35;16.70;;;5.10;99.90;;;;;;6123570;23;20037;-87
2021/01/11 03:19:49;;;;;;;26.80;17.17;;;5.10;99.90;;;;;;6122610;23;20005;-84
2021/01/11 03:22:16;;;;;;;28.92;17.38;;;5.10;99.90;;;;;;6124896;23;20314;-83
2021/01/11 03:24:42;;;;;;;25.02;16.42;;;4.90;99.90;;;;;;6122693;23;20512;-87
2021/01/11 03:27:08;;;;;;;24.17;16.48;;;4.90;99.90;;;;;;6123939;23;20030;-83
2021/01/11 03:29:33;;;;;;;25.38;17.13;;;5.00;99.90;;;;;;6123407;23;20033;-84
2021/01/11 03:31:59;;;;;;;25.20;16.88;;;5.00;99.90;;;;;;6124366;23;20033;-83
2021/01/11 03:34:25;;;;;;;22.67;16.23;;;5.10;99.90;;;;;;6125542;23;20018;-86
2021/01/11 03:36:51;;;;;;;23.48;16.65;;;5.10;99.90;;;;;;6124648;23;20006;-83
2021/01/11 03:39:16;;;;;;;22.92;15.68;;;5.10;99.90;;;;;;6126140;23;20006;-84
2021/01/11 03:41:46;;;;;;;25.23;16.25;;;5.10;99.90;;;;;;6125736;23;20049;-86
2021/01/11 03:44:13;;;;;;;23.63;16.10;;;5.10;99.90;;;;;;6126465;23;20384;-87
2021/01/11 03:46:38;;;;;;;23.38;15.82;;;5.20;99.90;;;;;;6126331;23;20045;-87
2021/01/11 03:49:05;;;;;;;21.48;14.55;;;5.10;99.90;;;;;;6126072;23;20002;-84
2021/01/11 03:51:31;;;;;;;22.83;14.98;;;5.00;99.90;;;;;;6126277;23;20022;-84
2021/01/11 03:53:57;;;;;;;18.73;13.93;;;4.80;99.90;;;;;;6124473;23;20041;-88
2021/01/11 03:56:23;;;;;;;19.02;14.02;;;4.70;99.90;;;;;;6125485;23;20129;-85
2021/01/11 03:58:48;;;;;;;21.40;15.57;;;4.90;99.90;;;;;;6126320;23;20002;-83
2021/01/11 04:01:14;;;;;;;21.98;15.30;;;4.90;99.90;;;;;;6124337;23;20010;-83
2021/01/11 04:03:40;;;;;;;20.52;14.68;;;4.70;99.90;;;;;;6126491;23;20002;-90
2021/01/11 04:06:07;;;;;;;21.85;14.90;;;4.80;99.90;;;;;;6126570;23;20026;-92
2021/01/11 04:08:33;;;;;;;19.48;14.65;;;4.80;99.90;;;;;;6124840;23;20006;-84
2021/01/11 04:10:58;;;;;;;22.30;15.07;;;4.80;99.90;;;;;;6124110;23;20013;-84
2021/01/11 04:13:24;;;;;;;21.42;15.02;;;4.80;99.90;;;;;;6125702;23;20452;-86
2021/01/11 04:15:50;;;;;;;22.88;15.43;;;4.90;99.90;;;;;;6123891;23;20017;-85
2021/01/11 04:18:16;;;;;;;23.92;15.70;;;5.00;99.90;;;;;;6125494;23;20006;-82
2021/01/11 04:20:42;;;;;;;22.90;15.13;;;5.10;99.90;;;;;;6125858;23;20033;-83
2021/01/11 04:23:08;;;;;;;22.83;14.77;;;5.20;99.90;;;;;;6125574;23;20302;-84
2021/01/11 04:25:34;;;;;;;20.33;13.88;;;5.20;99.90;;;;;;6125532;23;20403;-88
2021/01/11 04:28:01;;;;;;;22.77;15.75;;;5.00;99.90;;;;;;6125052;23;20005;-85
2021/01/11 04:30:27;;;;;;;19.95;14.68;;;5.10;99.90;;;;;;6122912;23;20033;-85
2021/01/11 04:32:56;;;;;;;20.55;14.88;;;4.90;99.90;;;;;;6123305;23;20072;-82
2021/01/11 04:35:23;;;;;;;22.73;16.20;;;4.70;99.90;;;;;;6125010;23;20130;-85
2021/01/11 04:37:49;;;;;;;22.65;15.13;;;4.80;99.90;;;;;;6125458;23;20020;-82
2021/01/11 04:40:15;;;;;;;21.00;15.75;;;5.00;99.90;;;;;;6125528;23;20013;-84
2021/01/11 04:42:50;;;;;;;19.60;14.55;;;5.00;99.90;;;;;;6123479;23;20417;-88
2021/01/11 04:45:20;;;;;;;19.83;14.50;;;5.00;99.90;;;;;;6123512;23;20021;-85
2021/01/11 04:47:54;;;;;;;17.98;12.60;;;4.90;99.90;;;;;;6124036;23;20017;-85
2021/01/11 04:50:20;;;;;;;17.27;11.88;;;4.80;99.90;;;;;;6123581;23;20009;-83
2021/01/11 04:52:47;;;;;;;18.50;12.65;;;4.90;99.90;;;;;;6125197;23;20080;-84
2021/01/11 04:55:14;;;;;;;17.30;12.90;;;5.00;99.90;;;;;;6124922;23;20033;-85
2021/01/11 04:57:53;;;;;;;17.48;13.02;;;5.10;99.90;;;;;;6125415;23;20005;-83
2021/01/11 05:00:29;;;;;;;16.98;12.15;;;5.20;99.90;;;;;;6124837;23;20002;-83
2021/01/11 05:03:05;;;;;;;19.35;12.85;;;5.20;99.90;;;;;;6123826;23;20021;-84
2021/01/11 05:05:35;;;;;;;16.23;11.90;;;5.20;99.90;;;;;;6123444;23;20076;-86
2021/01/11 05:08:01;;;;;;;16.75;11.85;;;5.30;99.90;;;;;;6125056;23;20069;-84
2021/01/11 05:10:31;;;;;;;16.65;12.25;;;5.40;99.90;;;;;;6124806;23;20002;-84
2021/01/11 05:13:04;;;;;;;;;;;5.10;99.90;;;;;;6125656;23;20014;-84
2021/01/11 05:15:38;;;;;;;18.08;11.40;;;5.10;99.90;;;;;;6124554;23;19901;-85
2021/01/11 05:18:14;;;;;;;15.40;11.52;;;5.30;99.90;;;;;;6125165;23;20459;-85
2021/01/11 05:20:40;;;;;;;15.18;12.40;;;5.30;99.90;;;;;;6124791;23;19998;-83
2021/01/11 05:23:12;;;;;;;17.98;11.60;;;5.30;99.90;;;;;;6125134;23;20008;-85
2021/01/11 05:25:38;;;;;;;14.13;10.02;;;5.30;99.90;;;;;;6123180;23;20029;-84
2021/01/11 05:28:15;;;;;;;14.88;11.27;;;5.10;99.90;;;;;;6123149;23;20009;-83
2021/01/11 05:30:45;;;;;;;15.38;11.15;;;5.10;99.90;;;;;;6124560;23;19995;-85
2021/01/11 05:33:22;;;;;;;14.30;10.93;;;5.20;99.90;;;;;;6123254;23;20097;-82
2021/01/11 05:36:03;;;;;;;15.23;11.20;;;5.30;99.90;;;;;;6124997;23;20012;-84
2021/01/11 05:38:40;;;;;;;16.92;11.30;;;5.30;99.90;;;;;;6150345;23;20009;-84
2021/01/11 05:41:21;;;;;;;16.67;11.15;;;5.30;99.90;;;;;;6152965;23;19997;-81
2021/01/11 05:44:16;;;;;;;14.13;10.70;;;5.40;99.90;;;;;;6155262;23;20005;-91
2021/01/11 05:46:45;;;;;;;12.88;9.77;;;5.30;99.90;;;;;;6154971;23;20293;-86
2021/01/11 05:49:12;;;;;;;10.68;8.40;;;5.40;99.90;;;;;;6153687;23;20021;-88
2021/01/11 05:51:39;;;;;;;8.80;7.43;;;5.20;99.90;;;;;;6154428;23;20001;-86
2021/01/11 05:54:06;;;;;;;11.77;8.68;;;5.20;99.90;;;;;;6152340;23;20023;-84
2021/01/11 05:56:55;;;;;;;6.97;6.07;;;5.30;99.90;;;;;;6152669;23;20013;-84
2021/01/11 05:59:22;;;;;;;9.23;5.90;;;5.30;99.90;;;;;;6152696;23;20032;-84
2021/01/11 06:01:48;;;;;;;7.60;6.00;;;5.30;99.90;;;;;;6152619;23;20010;-82
2021/01/11 06:04:14;;;;;;;6.53;5.15;;;5.50;99.90;;;;;;6154676;23;20638;-85
2021/01/11 06:06:40;;;;;;;5.97;4.43;;;5.20;99.90;;;;;;6152859;23;20029;-80
2021/01/11 06:09:09;;;;;;;6.03;5.32;;;5.40;99.90;;;;;;6154243;23;20021;-82
2021/01/11 06:11:38;;;;;;;7.38;5.30;;;5.20;99.90;;;;;;6154345;23;20091;-82
2021/01/11 06:14:07;;;;;;;6.97;5.90;;;5.20;99.90;;;;;;6152129;23;20013;-84
2021/01/11 06:16:34;;;;;;;7.88;6.03;;;5.30;99.90;;;;;;6154179;23;20019;-82
2021/01/11 06:19:00;;;;;;;8.07;6.43;;;5.50;99.90;;;;;;6153397;23;20327;-86
2021/01/11 06:21:26;;;;;;;7.75;5.90;;;5.30;99.90;;;;;;6154383;23;19998;-86
2021/01/11 06:24:13;;;;;;;9.52;6.78;;;5.40;99.90;;;;;;6154643;23;20005;-89
2021/01/11 06:26:39;;;;;;;8.68;6.88;;;5.50;99.90;;;;;;6153759;23;20061;-83
2021/01/11 06:29:32;;;;;;;7.72;6.35;;;5.40;99.90;;;;;;6152800;23;20014;-81
2021/01/11 06:32:21;;;;;;;8.27;6.38;;;5.50;99.90;;;;;;6152295;23;19998;-80
2021/01/11 06:34:47;;;;;;;7.20;5.97;;;5.50;99.90;;;;;;6153982;23;20017;-84
2021/01/11 06:37:31;;;;;;;8.77;6.25;;;5.50;99.90;;;;;;6153547;23;20095;-82
2021/01/11 06:39:59;;;;;;;6.43;5.30;;;5.60;99.90;;;;;;6152276;23;20141;-82
2021/01/11 06:42:25;;;;;;;6.95;5.60;;;5.70;99.90;;;;;;6153199;23;20080;-83
2021/01/11 06:44:51;;;;;;;8.93;5.88;;;5.70;99.90;;;;;;6152721;23;20008;-85
2021/01/11 06:47:28;;;;;;;7.35;5.63;;;5.80;99.90;;;;;;6153770;23;20013;-83
2021/01/11 06:50:04;;;;;;;8.65;6.68;;;5.90;99.90;;;;;;6155096;23;19994;-84
2021/01/11 06:52:35;;;;;;;8.68;7.10;;;5.90;99.90;;;;;;6154905;23;20010;-86
2021/01/11 06:55:10;;;;;;;10.32;7.22;;;6.00;99.90;;;;;;6154366;23;20020;-86
2021/01/11 06:57:38;;;;;;;11.75;8.25;;;6.00;99.90;;;;;;6154484;23;19998;-85
2021/01/11 07:00:13;;;;;;;14.13;9.57;;;6.00;99.90;;;;;;6154205;23;20001;-86
2021/01/11 07:02:43;;;;;;;17.02;12.05;;;5.90;99.90;;;;;;6152481;23;20005;-89
2021/01/11 07:05:47;;;;;;;18.15;11.88;;;5.70;99.90;;;;;;6153379;23;20009;-86
2021/01/11 07:08:19;;;;;;;20.23;12.75;;;5.70;99.90;;;;;;6128387;23;20018;-84
2021/01/11 07:10:45;;;;;;;18.08;12.23;;;5.70;99.90;;;;;;6150238;23;20077;-85
2021/01/11 07:13:18;;;;;;;17.13;11.68;;;5.70;99.90;;;;;;6154426;23;20006;-88
2021/01/11 07:15:45;;;;;;;16.15;11.70;;;5.60;99.90;;;;;;6156285;23;20009;-84
2021/01/11 07:18:10;;;;;;;16.00;11.05;;;5.60;99.90;;;;;;6155944;23;20001;-88
2021/01/11 07:20:43;;;;;;;16.40;11.55;;;5.60;99.90;;;;;;6154564;23;20360;-88
2021/01/11 07:23:11;;;;;;;21.30;12.75;;;5.60;99.90;;;;;;6156306;23;20075;-84
2021/01/11 07:25:37;;;;;;;16.25;11.30;;;5.70;99.90;;;;;;6156112;23;19994;-83
2021/01/11 07:28:04;;;;;;;19.27;12.20;;;5.60;99.90;;;;;;6154656;23;20009;-83
2021/01/11 07:30:35;;;;;;;18.20;12.43;;;5.60;99.90;;;;;;6156090;23;20010;-88
2021/01/11 07:33:11;;;;;;;19.70;12.48;;;5.60;99.90;;;;;;6155385;23;20056;-84
2021/01/11 07:35:42;;;;;;;20.98;12.90;;;5.60;99.90;;;;;;6155785;23;20539;-82
2021/01/11 07:38:12;;;;;;;19.10;12.68;;;5.60;99.90;;;;;;6153541;23;20352;-85
2021/01/11 07:40:37;;;;;;;18.90;13.43;;;5.60;99.90;;;;;;6155339;23;19997;-84
2021/01/11 07:43:03;;;;;;;23.08;14.82;;;5.60;99.90;;;;;;6155622;23;20060;-84
2021/01/11 07:45:29;;;;;;;21.27;14.57;;;5.50;99.90;;;;;;6154638;23;20061;-86
2021/01/11 07:47:55;;;;;;;22.38;15.13;;;5.60;99.90;;;;;;6156054;23;20021;-84
2021/01/11 07:50:27;;;;;;;23.45;14.82;;;5.60;99.90;;;;;;6156864;23;20053;-90
2021/01/11 07:52:55;;;;;;;22.70;14.95;;;5.70;99.90;;;;;;6155780;23;20320;-85
2021/01/11 07:55:33;;;;;;;23.77;16.42;;;5.60;99.90;;;;;;6156188;23;20444;-89
2021/01/11 07:58:03;;;;;;;18.98;13.95;;;5.60;99.90;;;;;;6156697;23;19997;-88
2021/01/11 08:00:29;;;;;;;24.15;15.85;;;5.60;99.90;;;;;;6155797;23;20069;-82
2021/01/11 08:02:55;;;;;;;20.92;14.68;;;5.60;99.90;;;;;;6156685;23;19997;-81
2021/01/11 08:05:23;;;;;;;23.30;15.38;;;5.70;99.90;;;;;;6154709;23;20004;-87
2021/01/11 08:08:05;;;;;;;20.73;14.45;;;5.60;99.90;;;;;;6157029;23;20013;-81
2021/01/11 08:10:32;;;;;;;20.92;14.85;;;5.60;99.90;;;;;;6155479;23;20067;-82
2021/01/11 08:13:08;;;;;;;18.95;14.52;;;5.60;99.90;;;;;;6156657;23;20343;-82
2021/01/11 08:15:34;;;;;;;20.80;14.52;;;5.70;99.90;;;;;;6154927;23;20005;-84
2021/01/11 08:18:04;;;;;;;20.60;14.80;;;5.70;99.90;;;;;;6156823;23;20106;-86
2021/01/11 08:20:30;;;;;;;14.30;9.68;;;5.60;99.90;;;;;;6153572;23;20006;-86
2021/01/11 08:22:56;;;;;;;14.93;10.07;;;5.60;99.90;;;;;;6153329;23;20409;-82
2021/01/11 08:25:23;;;;;;;12.82;8.68;;;5.70;99.90;;;;;;6153500;23;20041;-82
2021/01/11 08:27:51;;;;;;;6.47;5.47;;;5.60;99.90;;;;;;6155059;23;20029;-83
2021/01/11 08:30:23;;;;;;;7.53;5.53;;;5.50;99.90;;;;;;6155363;23;20001;-84
2021/01/11 08:32:49;;;;;;;6.28;4.85;;;5.50;99.90;;;;;;6154610;23;20356;-85
2021/01/11 08:35:56;;;;;;;7.60;4.50;;;5.60;99.90;;;;;;6154160;23;20332;-85
2021/01/11 08:38:27;;;;;;;5.32;4.60;;;5.60;99.90;;;;;;6064482;23;20003;-88
2021/01/11 08:41:21;;;;;;;7.00;4.95;;;5.60;99.90;;;;;;6153541;23;20419;-85
2021/01/11 08:43:47;;;;;;;10.63;5.53;;;5.70;99.90;;;;;;6156242;23;20420;-85
2021/01/11 08:46:13;;;;;;;8.57;5.50;;;5.60;99.90;;;;;;6155666;23;19994;-82
2021/01/11 08:48:38;;;;;;;7.53;5.50;;;5.40;99.90;;;;;;6154788;23;20052;-81
2021/01/11 08:51:04;;;;;;;7.13;5.63;;;5.40;99.90;;;;;;6155400;23;20005;-86
2021/01/11 08:53:33;;;;;;;5.40;4.00;;;5.30;99.90;;;;;;6155223;23;20013;-82
2021/01/11 08:56:00;;;;;;;4.85;4.22;;;5.30;99.90;;;;;;6155033;23;20005;-87
2021/01/11 08:58:31;;;;;;;6.07;4.55;;;5.20;99.90;;;;;;6153454;23;20401;-84
2021/01/11 09:01:19;;;;;;;6.60;4.65;;;5.10;99.90;;;;;;6154718;23;20424;-84
2021/01/11 09:03:52;;;;;;;6.30;4.63;;;5.10;99.90;;;;;;6155710;23;20060;-84
2021/01/11 09:06:39;;;;;;;6.30;4.88;;;5.30;99.90;;;;;;6156200;23;20006;-84
2021/01/11 09:09:16;;;;;;;6.35;5.03;;;5.30;99.90;;;;;;6156997;23;20001;-84
2021/01/11 09:14:55;;;;;;;5.93;5.15;;;5.40;99.90;;;;;;6154656;23;20020;-83
2021/01/11 09:17:37;;;;;;;7.50;4.90;;;5.30;99.90;;;;;;6154145;23;20404;-83
2021/01/11 09:20:16;;;;;;;7.38;5.20;;;5.30;99.90;;;;;;6154855;23;20073;-85
2021/01/11 09:22:41;;;;;;;6.93;5.43;;;5.50;99.90;;;;;;6153253;23;20483;-85
2021/01/11 09:25:11;;;;;;;5.65;4.60;;;5.30;99.90;;;;;;6155135;23;20001;-86
2021/01/11 09:27:44;;;;;;;6.50;4.78;;;5.10;99.90;;;;;;6154996;23;20016;-83
2021/01/11 09:30:10;;;;;;;7.47;5.35;;;5.20;99.90;;;;;;6154634;23;20148;-90
2021/01/11 09:32:36;;;;;;;9.27;5.53;;;5.10;99.90;;;;;;6155541;23;20309;-82
2021/01/11 09:35:03;;;;;;;6.80;5.25;;;5.30;99.90;;;;;;6154478;23;20068;-83
2021/01/11 09:37:29;;;;;;;6.65;5.95;;;5.20;99.90;;;;;;6152905;23;20014;-83
2021/01/11 09:39:55;;;;;;;26.70;16.88;;;5.40;99.90;;;;;;6152853;23;20140;-83
2021/01/11 09:42:21;;;;;;;8.70;6.18;;;5.90;99.90;;;;;;6156568;23;20311;-88
2021/01/11 09:44:47;;;;;;;7.25;5.38;;;5.60;99.90;;;;;;6154593;23;20001;-86
2021/01/11 09:47:14;;;;;;;7.07;5.53;;;5.30;99.90;;;;;;6153314;23;20001;-83
2021/01/11 09:49:40;;;;;;;7.68;5.38;;;5.30;99.90;;;;;;6153885;23;20003;-86
2021/01/11 09:52:06;;;;;;;6.72;5.40;;;5.40;99.90;;;;;;6152502;23;20028;-82
2021/01/11 09:54:32;;;;;;;6.75;5.28;;;5.30;99.90;;;;;;6154289;23;20100;-84
2021/01/11 09:56:59;;;;;;;10.65;5.53;;;5.40;99.90;;;;;;6152489;23;20072;-81
2021/01/11 09:59:25;;;;;;;6.90;5.50;;;5.30;99.90;;;;;;6152934;23;20008;-88
2021/01/11 10:01:52;;;;;;;7.00;5.60;;;5.50;99.90;;;;;;6158216;23;19998;-85
2021/01/11 10:04:18;;;;;;;7.07;5.65;;;5.70;99.90;;;;;;6155326;23;19997;-82
2021/01/11 10:06:48;;;;;;;7.50;5.20;;;5.50;99.90;;;;;;6154444;23;20006;-85
2021/01/11 10:09:16;;;;;;;6.82;5.75;;;5.30;99.90;;;;;;6154352;23;20005;-85
2021/01/11 10:11:47;;;;;;;28.00;15.70;;;5.20;99.90;;;;;;6157207;23;20312;-90
2021/01/11 10:14:36;;;;;;;19.33;13.15;;;5.80;99.90;;;;;;6155338;23;20044;-82
2021/01/11 10:17:02;;;;;;;10.85;7.35;;;6.00;99.90;;;;;;6151643;23;20073;-85
2021/01/11 10:19:29;;;;;;;14.63;9.50;;;5.50;99.90;;;;;;6155559;23;20048;-81
2021/01/11 10:21:59;;;;;;;8.15;6.78;;;5.70;99.90;;;;;;6152660;23;20331;-84
2021/01/11 10:24:24;;;;;;;10.38;6.68;;;5.60;99.90;;;;;;6152314;23;20017;-88
2021/01/11 10:26:51;;;;;;;8.80;6.90;;;5.50;99.90;;;;;;6152086;23;20323;-82
2021/01/11 10:29:19;;;;;;;9.88;7.63;;;5.40;99.90;;;;;;6152658;23;20008;-82
2021/01/11 10:31:45;;;;;;;8.70;7.18;;;5.50;99.90;;;;;;6152438;23;20010;-81
2021/01/11 10:34:18;;;;;;;11.77;7.60;;;5.50;99.90;;;;;;6151572;23;20072;-81
2021/01/11 10:36:49;;;;;;;8.45;6.10;;;5.50;99.90;;;;;;6154317;23;20006;-83
2021/01/11 10:39:22;;;;;;;11.02;7.57;;;5.60;99.90;;;;;;6153656;23;20215;-85
2021/01/11 10:41:56;;;;;;;9.88;7.18;;;5.80;99.90;;;;;;6152464;23;20006;-83
2021/01/11 10:46:59;;;;;;;10.63;8.60;;;5.90;99.90;;;;;;6152673;23;20379;-86
2021/01/11 10:49:26;;;;;;;15.23;9.48;;;5.90;99.90;;;;;;6153286;23;20056;-86
2021/01/11 10:51:55;;;;;;;12.38;8.35;;;5.90;99.90;;;;;;6152664;23;20001;-82
2021/01/11 10:54:21;;;;;;;14.20;9.18;;;6.00;99.90;;;;;;6152551;23;20104;-87
2021/01/11 10:56:56;;;;;;;9.15;7.53;;;5.90;99.90;;;;;;6152189;23;19998;-82
2021/01/11 10:59:23;;;;;;;10.10;6.45;;;5.60;99.90;;;;;;6151877;23;20060;-83
2021/01/11 11:01:49;;;;;;;8.85;6.53;;;5.60;99.90;;;;;;6152226;23;20010;-85
2021/01/11 11:04:15;;;;;;;7.38;6.00;;;5.70;99.90;;;;;;6152001;23;20060;-82
2021/01/11 11:06:41;;;;;;;8.32;6.43;;;5.70;99.90;;;;;;6146309;23;20021;-86
2021/01/11 11:09:06;;;;;;;8.80;6.30;;;5.40;99.90;;;;;;6150078;23;20033;-84
2021/01/11 11:11:32;;;;;;;9.57;6.70;;;5.60;99.90;;;;;;6149964;23;19997;-85
2021/01/11 11:13:58;;;;;;;24.05;13.63;;;5.50;99.90;;;;;;6153383;23;20009;-85
2021/01/11 11:16:24;;;;;;;21.27;11.43;;;6.20;99.90;;;;;;6150842;23;20014;-82
2021/01/11 11:18:49;;;;;;;10.43;8.40;;;5.90;99.90;;;;;;6153171;23;20001;-84
2021/01/11 11:21:15;;;;;;;9.52;7.35;;;5.70;99.90;;;;;;6153247;23;19997;-82
2021/01/11 11:23:41;;;;;;;10.50;8.00;;;5.60;99.90;;;;;;6153432;23;20076;-82
2021/01/11 11:26:11;;;;;;;11.75;8.18;;;5.50;99.90;;;;;;6151198;23;20006;-84
2021/01/11 11:28:38;;;;;;;9.70;8.00;;;5.40;99.90;;;;;;6151748;23;20368;-83
2021/01/11 11:31:07;;;;;;;11.23;7.55;;;5.50;99.90;;;;;;6151046;23;20046;-83
2021/01/11 11:33:36;;;;;;;14.90;8.55;;;5.30;99.90;;;;;;6153175;23;20024;-83
2021/01/11 11:36:01;;;;;;;9.23;7.07;;;5.30;99.90;;;;;;6152928;23;20008;-82
2021/01/11 11:38:27;;;;;;;10.80;7.22;;;5.20;99.90;;;;;;6150882;23;20084;-84
2021/01/11 11:40:53;;;;;;;12.82;8.23;;;5.20;99.90;;;;;;6151207;23;20210;-84
2021/01/11 11:43:19;;;;;;;10.02;8.07;;;5.30;99.90;;;;;;6153384;23;20002;-86
2021/01/11 11:45:52;;;;;;;9.32;7.15;;;5.40;99.90;;;;;;6149027;23;20017;-85
2021/01/11 11:48:19;;;;;;;12.20;7.72;;;5.50;99.90;;;;;;6153295;23;20041;-84
2021/01/11 11:50:44;;;;;;;9.68;6.97;;;5.60;99.90;;;;;;6153392;23;20054;-82
2021/01/11 11:53:22;;;;;;;16.10;9.85;;;5.60;99.90;;;;;;6152808;23;20014;-83
2021/01/11 11:55:53;;;;;;;11.35;8.02;;;5.70;99.90;;;;;;6153134;23;20064;-87
2021/01/11 11:58:24;;;;;;;10.70;7.55;;;5.60;99.90;;;;;;6153815;23;20420;-83
2021/01/11 12:00:51;;;;;;;10.15;8.05;;;5.70;99.90;;;;;;6154428;23;19997;-86
2021/01/11 12:03:19;;;;;;;12.38;8.30;;;5.80;99.90;;;;;;6154990;23;20004;-85
2021/01/11 12:05:48;;;;;;;10.35;8.20;;;5.80;99.90;;;;;;6153006;23;20062;-87
2021/01/11 12:08:16;;;;;;;10.60;8.43;;;5.60;99.90;;;;;;6153372;23;20016;-85
2021/01/11 12:10:42;;;;;;;11.40;8.00;;;5.40;99.90;;;;;;6152068;23;20006;-87
2021/01/11 12:13:07;;;;;;;9.48;7.40;;;5.30;99.90;;;;;;6152851;23;20005;-88
2021/01/11 12:15:36;;;;;;;9.48;7.55;;;5.40;99.90;;;;;;6152545;23;20037;-86
2021/01/11 12:18:04;;;;;;;18.27;11.40;;;5.20;99.90;;;;;;6153876;23;20092;-84
2021/01/11 12:20:30;;;;;;;16.70;10.40;;;5.50;99.90;;;;;;6153876;23;20483;-86
2021/01/11 12:22:56;;;;;;;12.90;8.80;;;5.70;99.90;;;;;;6153126;23;20458;-87
2021/01/11 12:25:31;;;;;;;14.65;9.98;;;5.80;99.90;;;;;;6152433;23;20020;-85
2021/01/11 12:28:02;;;;;;;15.07;8.38;;;5.90;99.90;;;;;;6128991;23;20015;-84
2021/01/11 12:30:28;;;;;;;16.52;9.27;;;5.90;99.90;;;;;;6152867;23;20001;-85
2021/01/11 12:32:57;;;;;;;11.43;8.13;;;6.20;99.90;;;;;;6152913;23;20013;-85
2021/01/11 12:35:23;;;;;;;10.88;7.10;;;5.80;99.90;;;;;;6153967;23;20006;-87
2021/01/11 12:37:48;;;;;;;10.40;7.53;;;5.70;99.90;;;;;;6154185;23;20009;-84
2021/01/11 12:40:14;;;;;;;10.05;6.97;;;5.50;99.90;;;;;;6152836;23;20010;-82
2021/01/11 12:42:40;;;;;;;13.32;7.93;;;5.50;99.90;;;;;;6153015;23;20005;-82
2021/01/11 12:45:07;;;;;;;9.48;7.65;;;5.70;99.90;;;;;;6154025;23;20339;-85
2021/01/11 12:47:39;;;;;;;13.30;9.10;;;5.80;99.90;;;;;;6154906;23;20009;-83
2021/01/11 12:50:09;;;;;;;34.97;20.67;;;5.90;99.90;;;;;;6155760;23;20006;-91
2021/01/11 12:52:35;;;;;;;17.10;12.55;;;6.20;99.90;;;;;;6157189;23;20700;-87
2021/01/11 12:55:01;;;;;;;12.05;8.18;;;6.70;99.90;;;;;;6152653;23;20079;-88
2021/01/11 12:57:32;;;;;;;11.00;7.65;;;6.30;99.90;;;;;;6152966;23;20012;-83
2021/01/11 12:59:58;;;;;;;10.90;8.10;;;6.40;99.90;;;;;;6154257;23;20002;-84
2021/01/11 13:02:26;;;;;;;10.70;8.35;;;6.30;99.90;;;;;;6153713;23;20010;-85